Time;durP1;ratioP1;P1;durP2;ratioP2;P2;SDS_P1;SDS_P2;PMS_P1;PMS_P2;Temp;Humidity;BMP_temperature;BMP_pressure;BME280_temperature;BME280_humidity;BME280_pressure;Samples;Min_cycle;Max_cycle;Signal;HPM_P1;HPM_P2
2022/04/09 00:00:18;;;;;;;4.20;3.72;;;5.30;99.90;;;;;;5006274;28;20936;-64
2022/04/09 00:02:44;;;;;;;4.07;3.40;;;5.40;99.90;;;;;;5009365;28;20180;-65
2022/04/09 00:05:12;;;;;;;4.07;3.67;;;5.40;99.90;;;;;;5009964;28;20222;-64
2022/04/09 00:07:37;;;;;;;4.13;3.58;;;5.50;99.90;;;;;;5017339;28;20195;-64
2022/04/09 00:10:07;;;;;;;3.93;3.30;;;5.50;99.90;;;;;;5008519;28;20188;-64
2022/04/09 00:12:33;;;;;;;6.10;3.10;;;5.60;99.90;;;;;;5009253;28;20172;-65
2022/04/09 00:14:59;;;;;;;5.40;3.93;;;5.50;99.90;;;;;;5007686;28;20184;-65
2022/04/09 00:17:25;;;;;;;6.40;4.67;;;5.60;99.90;;;;;;5008235;28;20275;-64
2022/04/09 00:19:52;;;;;;;5.83;4.60;;;5.50;99.90;;;;;;5007900;28;20192;-64
2022/04/09 00:22:18;;;;;;;5.25;4.55;;;5.50;99.90;;;;;;5009813;28;20403;-64
2022/04/09 00:24:43;;;;;;;5.65;4.50;;;5.50;99.90;;;;;;5005529;28;20191;-64
2022/04/09 00:27:09;;;;;;;5.13;4.13;;;5.40;99.90;;;;;;5012428;28;20256;-62
2022/04/09 00:29:35;;;;;;;4.93;4.43;;;5.20;99.90;;;;;;5007193;28;20357;-63
2022/04/09 00:32:00;;;;;;;5.07;4.57;;;5.10;99.90;;;;;;5007312;28;20685;-62
2022/04/09 00:34:26;;;;;;;4.87;4.10;;;5.10;99.90;;;;;;5010331;28;20183;-63
2022/04/09 00:36:52;;;;;;;4.70;4.30;;;5.10;99.90;;;;;;5029200;28;20187;-63
2022/04/09 00:39:17;;;;;;;4.77;3.90;;;5.00;99.90;;;;;;5007886;28;20214;-63
2022/04/09 00:41:47;;;;;;;5.33;4.13;;;5.00;99.90;;;;;;5015872;28;20187;-63
2022/04/09 00:44:17;;;;;;;4.93;3.60;;;4.90;99.90;;;;;;5017429;28;20278;-62
2022/04/09 00:46:43;;;;;;;4.82;4.00;;;4.80;99.90;;;;;;5024991;28;20187;-60
2022/04/09 00:49:09;;;;;;;4.65;3.65;;;4.80;99.90;;;;;;5008037;28;20354;-62
2022/04/09 00:51:39;;;;;;;4.32;3.92;;;4.80;99.90;;;;;;5007588;28;20188;-63
2022/04/09 00:54:06;;;;;;;4.32;3.47;;;4.70;99.90;;;;;;5017953;28;20273;-63
2022/04/09 00:56:32;;;;;;;4.00;3.55;;;4.70;99.90;;;;;;5015864;28;20570;-64
2022/04/09 00:59:02;;;;;;;4.60;3.85;;;4.70;99.90;;;;;;5012281;28;20215;-64
2022/04/09 01:01:32;;;;;;;7.13;3.70;;;4.60;99.90;;;;;;5026383;28;20206;-64
2022/04/09 01:03:59;;;;;;;6.30;4.18;;;4.60;99.90;;;;;;5014036;28;20192;-62
2022/04/09 01:06:24;;;;;;;4.00;3.60;;;4.60;99.90;;;;;;5028575;28;20191;-59
2022/04/09 01:08:50;;;;;;;4.40;3.70;;;4.60;99.90;;;;;;5020554;28;20276;-62
2022/04/09 01:11:16;;;;;;;5.50;4.97;;;4.70;99.90;;;;;;5012578;28;20263;-62
2022/04/09 01:13:43;;;;;;;6.23;3.80;;;4.70;99.90;;;;;;5014941;28;20229;-63
2022/04/09 01:16:09;;;;;;;5.90;4.60;;;4.70;99.90;;;;;;5042266;28;20433;-62
2022/04/09 01:18:36;;;;;;;5.23;4.27;;;4.70;99.90;;;;;;5011576;28;20708;-60
2022/04/09 01:21:03;;;;;;;5.80;4.30;;;4.80;99.90;;;;;;5014587;28;20234;-61
2022/04/09 01:23:29;;;;;;;4.53;3.92;;;4.80;99.90;;;;;;5016189;28;20192;-61
2022/04/09 01:26:04;;;;;;;5.30;4.50;;;4.80;99.90;;;;;;5010014;28;20262;-61
2022/04/09 01:28:31;;;;;;;6.03;4.75;;;4.80;99.90;;;;;;5018315;28;20202;-61
2022/04/09 01:30:57;;;;;;;7.38;5.07;;;4.90;99.90;;;;;;5013848;28;20206;-63
2022/04/09 01:33:23;;;;;;;5.10;4.27;;;4.80;99.90;;;;;;5017248;28;20175;-62
2022/04/09 01:35:50;;;;;;;5.70;4.57;;;4.80;99.90;;;;;;5026915;28;20293;-61
2022/04/09 01:38:16;;;;;;;8.50;5.38;;;4.80;99.90;;;;;;5015769;28;20215;-61
2022/04/09 01:40:42;;;;;;;6.63;5.15;;;4.70;99.90;;;;;;5024191;28;20674;-61
2022/04/09 01:43:07;;;;;;;6.40;5.40;;;4.70;99.90;;;;;;5022630;28;20282;-61
2022/04/09 01:45:34;;;;;;;7.67;5.33;;;4.70;99.90;;;;;;5025603;28;20198;-61
2022/04/09 01:48:00;;;;;;;5.65;4.68;;;4.70;99.90;;;;;;5015284;28;20476;-62
2022/04/09 01:50:26;;;;;;;9.10;5.67;;;4.70;99.90;;;;;;5023333;28;20183;-61
2022/04/09 01:52:52;;;;;;;6.20;5.10;;;4.60;99.90;;;;;;5013038;28;20222;-61
2022/04/09 01:55:18;;;;;;;7.10;4.55;;;4.70;99.90;;;;;;5013454;28;20258;-61
2022/04/09 01:57:44;;;;;;;5.00;4.23;;;4.70;99.90;;;;;;5022235;28;20231;-61
2022/04/09 02:00:12;;;;;;;7.70;5.07;;;4.70;99.90;;;;;;5011740;28;20191;-61
2022/04/09 02:02:38;;;;;;;7.25;5.18;;;4.70;99.90;;;;;;5025447;28;20257;-61
2022/04/09 02:05:04;;;;;;;6.50;5.00;;;4.70;99.90;;;;;;5008310;28;20665;-60
2022/04/09 02:07:30;;;;;;;7.35;5.30;;;4.70;99.90;;;;;;5012083;28;20414;-62
2022/04/09 02:09:55;;;;;;;6.77;5.77;;;4.70;99.90;;;;;;5027606;28;20206;-61
2022/04/09 02:12:21;;;;;;;5.80;5.10;;;4.70;99.90;;;;;;5018629;28;20295;-61
2022/04/09 02:14:47;;;;;;;7.13;4.90;;;4.60;99.90;;;;;;5023822;28;20914;-61
2022/04/09 02:17:13;;;;;;;6.60;5.47;;;4.60;99.90;;;;;;5011334;28;20525;-61
2022/04/09 02:19:39;;;;;;;6.85;5.25;;;4.60;99.90;;;;;;5024327;28;20191;-61
2022/04/09 02:22:05;;;;;;;5.13;4.63;;;4.60;99.90;;;;;;5009061;28;20208;-62
2022/04/09 02:24:31;;;;;;;5.57;4.93;;;4.70;99.90;;;;;;5016576;28;20194;-61
2022/04/09 02:26:57;;;;;;;6.23;5.23;;;4.80;99.90;;;;;;5020934;28;20187;-62
2022/04/09 02:29:23;;;;;;;8.07;5.80;;;4.70;99.90;;;;;;5022670;28;20318;-62
2022/04/09 02:31:48;;;;;;;6.90;5.20;;;4.70;99.90;;;;;;5020593;28;20449;-61
2022/04/09 02:34:14;;;;;;;6.10;4.67;;;4.70;99.90;;;;;;5025405;28;20195;-61
2022/04/09 02:36:40;;;;;;;6.93;5.20;;;4.70;99.90;;;;;;5028803;28;20197;-62
2022/04/09 02:39:06;;;;;;;8.50;6.07;;;4.80;99.90;;;;;;5025420;28;20541;-61
2022/04/09 02:41:32;;;;;;;6.70;5.67;;;4.70;99.90;;;;;;5019307;28;20269;-62
2022/04/09 02:43:57;;;;;;;7.67;5.60;;;4.70;99.90;;;;;;5020954;28;20207;-62
2022/04/09 02:46:24;;;;;;;7.83;5.50;;;4.70;99.90;;;;;;5017515;28;20959;-61
2022/04/09 02:48:50;;;;;;;8.15;6.50;;;4.70;99.90;;;;;;5008620;28;20204;-62
2022/04/09 02:51:16;;;;;;;8.60;6.30;;;4.80;99.90;;;;;;5010746;28;20588;-62
2022/04/09 02:53:42;;;;;;;8.68;6.63;;;4.80;99.90;;;;;;5008733;28;20261;-62
2022/04/09 02:56:07;;;;;;;9.07;7.10;;;4.70;99.90;;;;;;5011009;28;20656;-61
2022/04/09 02:58:33;;;;;;;8.77;7.07;;;4.80;99.90;;;;;;5010537;28;20211;-61
2022/04/09 03:00:58;;;;;;;10.17;6.40;;;4.70;99.90;;;;;;5009267;28;20187;-61
2022/04/09 03:03:24;;;;;;;7.67;6.93;;;4.70;99.90;;;;;;5010044;28;20263;-62
2022/04/09 03:05:49;;;;;;;7.90;6.40;;;4.80;99.90;;;;;;5010253;28;20564;-62
2022/04/09 03:08:15;;;;;;;9.60;6.80;;;4.80;99.90;;;;;;5010060;28;20211;-62
2022/04/09 03:10:41;;;;;;;9.20;6.67;;;4.80;99.90;;;;;;5010772;28;20160;-61
2022/04/09 03:13:06;;;;;;;8.47;6.83;;;4.80;99.90;;;;;;5010134;28;20237;-62
2022/04/09 03:15:32;;;;;;;8.43;6.87;;;4.80;99.90;;;;;;5006424;28;20187;-62
2022/04/09 03:17:58;;;;;;;13.50;7.70;;;4.80;99.90;;;;;;5007406;28;20681;-62
2022/04/09 03:20:23;;;;;;;11.77;8.03;;;4.80;99.90;;;;;;5010846;28;20420;-62
2022/04/09 03:22:49;;;;;;;10.77;7.40;;;4.90;99.90;;;;;;5009837;28;20191;-62
2022/04/09 03:25:16;;;;;;;8.70;7.60;;;4.90;99.90;;;;;;5006850;28;20210;-62
2022/04/09 03:27:42;;;;;;;10.18;7.88;;;4.90;99.90;;;;;;5004101;28;20191;-62
2022/04/09 03:30:08;;;;;;;11.13;8.40;;;4.90;99.90;;;;;;5010474;28;20253;-62
2022/04/09 03:32:38;;;;;;;11.82;8.25;;;4.90;99.90;;;;;;5008243;28;20442;-62
2022/04/09 03:35:05;;;;;;;10.05;8.10;;;5.00;99.90;;;;;;5008013;28;20556;-61
2022/04/09 03:37:33;;;;;;;13.55;7.68;;;5.00;99.90;;;;;;5007785;28;20211;-62
2022/04/09 03:39:59;;;;;;;8.90;7.10;;;5.10;99.90;;;;;;5010595;28;20195;-62
2022/04/09 03:42:24;;;;;;;7.97;6.90;;;5.10;99.90;;;;;;5008916;28;20235;-61
2022/04/09 03:44:50;;;;;;;10.00;7.87;;;5.10;99.90;;;;;;5010501;28;20164;-62
2022/04/09 03:47:15;;;;;;;10.60;7.80;;;5.20;99.90;;;;;;5008464;28;20188;-62
2022/04/09 03:49:41;;;;;;;10.53;8.03;;;5.20;99.90;;;;;;5003221;28;20223;-62
2022/04/09 03:52:07;;;;;;;11.03;7.97;;;5.10;99.90;;;;;;5007263;28;20184;-61
2022/04/09 03:54:34;;;;;;;10.43;7.93;;;5.20;99.90;;;;;;5009836;28;20812;-62
2022/04/09 03:57:00;;;;;;;13.25;8.95;;;5.20;99.90;;;;;;5004529;28;20281;-62
2022/04/09 03:59:25;;;;;;;10.83;8.30;;;5.20;99.90;;;;;;5015234;28;20187;-62
2022/04/09 04:01:51;;;;;;;8.83;7.90;;;5.20;99.90;;;;;;5016342;28;20224;-62
2022/04/09 04:04:16;;;;;;;9.63;8.20;;;5.20;99.90;;;;;;5007522;28;20194;-62
2022/04/09 04:06:42;;;;;;;11.00;8.13;;;5.10;99.90;;;;;;5005422;28;20194;-62
2022/04/09 04:09:07;;;;;;;11.13;8.63;;;5.20;99.90;;;;;;5005410;28;20844;-62
2022/04/09 04:11:34;;;;;;;10.90;8.43;;;5.20;99.90;;;;;;5000082;28;20529;-62
2022/04/09 04:14:00;;;;;;;10.40;8.73;;;5.20;99.90;;;;;;5011368;28;20222;-60
2022/04/09 04:16:25;;;;;;;11.10;8.77;;;5.20;99.90;;;;;;5018332;28;20190;-62
2022/04/09 04:18:51;;;;;;;12.80;8.63;;;5.10;99.90;;;;;;5006511;28;20422;-61
2022/04/09 04:21:16;;;;;;;11.43;8.87;;;5.10;99.90;;;;;;5002329;28;20195;-61
2022/04/09 04:23:42;;;;;;;11.50;7.97;;;5.10;99.90;;;;;;5000184;28;20204;-62
2022/04/09 04:26:07;;;;;;;11.50;8.50;;;5.20;99.90;;;;;;5000482;28;20228;-61
2022/04/09 04:28:33;;;;;;;10.33;8.80;;;5.10;99.90;;;;;;5011895;28;20301;-61
2022/04/09 04:30:58;;;;;;;9.83;7.73;;;5.10;99.90;;;;;;5007276;28;20199;-61
2022/04/09 04:33:24;;;;;;;11.00;8.43;;;5.10;99.90;;;;;;5014686;28;20199;-61
2022/04/09 04:35:50;;;;;;;15.10;8.60;;;5.10;99.90;;;;;;5016493;28;20198;-62
2022/04/09 04:38:16;;;;;;;12.63;8.60;;;5.10;99.90;;;;;;5022686;28;20180;-62
2022/04/09 04:40:41;;;;;;;10.10;8.03;;;5.10;99.90;;;;;;5008828;28;20192;-62
2022/04/09 04:43:07;;;;;;;13.30;8.40;;;5.10;99.90;;;;;;5021858;28;20207;-61
2022/04/09 04:45:32;;;;;;;9.80;7.67;;;5.00;99.90;;;;;;5009027;28;20245;-61
2022/04/09 04:47:58;;;;;;;9.97;7.30;;;5.10;99.90;;;;;;5022137;28;20203;-62
2022/04/09 04:50:25;;;;;;;10.63;6.73;;;5.10;99.90;;;;;;5028849;28;20183;-62
2022/04/09 04:52:51;;;;;;;9.10;7.05;;;5.20;99.90;;;;;;5016089;28;20214;-62
2022/04/09 04:55:16;;;;;;;7.97;6.43;;;5.10;99.90;;;;;;5013469;28;20308;-62
2022/04/09 04:57:53;;;;;;;7.37;6.00;;;5.10;99.90;;;;;;5028419;28;20426;-62
2022/04/09 05:00:22;;;;;;;6.95;5.32;;;5.20;99.90;;;;;;5021523;28;20179;-62
2022/04/09 05:02:49;;;;;;;9.18;6.40;;;5.30;99.90;;;;;;5019389;28;20174;-62
2022/04/09 05:05:15;;;;;;;9.05;6.63;;;5.30;99.90;;;;;;5007996;28;20630;-62
2022/04/09 05:07:41;;;;;;;7.60;5.80;;;5.30;99.90;;;;;;5011765;28;20191;-62
2022/04/09 05:10:09;;;;;;;12.52;6.00;;;5.30;99.90;;;;;;5011594;28;20867;-62
2022/04/09 05:12:36;;;;;;;6.82;5.15;;;5.30;99.90;;;;;;5008929;28;20217;-62
2022/04/09 05:15:03;;;;;;;8.23;5.70;;;5.30;99.90;;;;;;5009040;28;20194;-63
2022/04/09 05:17:29;;;;;;;14.55;6.68;;;5.30;99.90;;;;;;5009564;28;20287;-62
2022/04/09 05:19:54;;;;;;;7.33;6.63;;;5.40;99.90;;;;;;5008636;28;20635;-63
2022/04/09 05:22:20;;;;;;;10.40;5.70;;;5.30;99.90;;;;;;5007718;28;20187;-63
2022/04/09 05:24:45;;;;;;;11.50;6.13;;;5.40;99.90;;;;;;5005611;28;20188;-63
2022/04/09 05:27:11;;;;;;;7.60;5.80;;;5.40;99.90;;;;;;5008996;28;20703;-63
2022/04/09 05:29:36;;;;;;;9.83;5.90;;;5.40;99.90;;;;;;5006952;28;20880;-63
2022/04/09 05:32:02;;;;;;;6.63;5.10;;;5.40;99.90;;;;;;5007789;28;20210;-63
2022/04/09 05:34:28;;;;;;;7.00;6.30;;;5.40;99.90;;;;;;5008593;28;20184;-63
2022/04/09 05:36:53;;;;;;;7.80;5.47;;;5.30;99.90;;;;;;5007495;28;20191;-63
2022/04/09 05:39:19;;;;;;;8.67;5.90;;;5.40;99.90;;;;;;5021737;28;20543;-63
2022/04/09 05:41:44;;;;;;;12.10;6.00;;;5.40;99.90;;;;;;5004323;28;20180;-64
2022/04/09 05:44:10;;;;;;;9.70;5.33;;;5.40;99.90;;;;;;5013789;28;20188;-63
2022/04/09 05:46:36;;;;;;;7.00;6.10;;;5.50;99.90;;;;;;5014278;28;20353;-64
2022/04/09 05:49:02;;;;;;;6.90;5.77;;;5.50;99.90;;;;;;5000445;28;20467;-63
2022/04/09 05:51:28;;;;;;;6.35;5.00;;;5.60;99.90;;;;;;5004341;28;20647;-64
2022/04/09 05:53:55;;;;;;;6.60;4.93;;;5.70;99.90;;;;;;4999401;28;20192;-62
2022/04/09 05:56:24;;;;;;;8.50;4.97;;;5.70;99.90;;;;;;5000204;28;20481;-63
2022/04/09 05:58:50;;;;;;;8.15;5.30;;;5.90;99.90;;;;;;5010913;28;20180;-64
2022/04/09 06:01:17;;;;;;;5.80;4.65;;;6.00;99.90;;;;;;5004685;28;20808;-64
2022/04/09 06:03:42;;;;;;;8.23;5.43;;;6.00;99.90;;;;;;5008334;28;20176;-64
2022/04/09 06:06:09;;;;;;;5.57;4.87;;;6.10;99.90;;;;;;5014614;28;20266;-62
2022/04/09 06:08:35;;;;;;;9.48;4.93;;;6.10;99.90;;;;;;5010923;28;20223;-63
2022/04/09 06:11:00;;;;;;;6.13;4.60;;;6.30;99.90;;;;;;5012837;28;20180;-63
2022/04/09 06:13:26;;;;;;;6.33;4.70;;;6.20;99.90;;;;;;5010594;28;20881;-62
2022/04/09 06:15:52;;;;;;;6.90;4.88;;;6.30;99.90;;;;;;5011772;28;20650;-63
2022/04/09 06:18:18;;;;;;;8.50;4.67;;;6.50;99.90;;;;;;5010714;28;20187;-62
2022/04/09 06:20:43;;;;;;;5.03;4.43;;;6.50;99.90;;;;;;5011650;28;20187;-63
2022/04/09 06:23:09;;;;;;;5.27;4.70;;;6.60;99.90;;;;;;5013931;28;20191;-62
2022/04/09 06:25:35;;;;;;;6.17;4.87;;;6.60;99.90;;;;;;5012757;28;20187;-63
2022/04/09 06:28:00;;;;;;;7.30;4.30;;;6.70;99.90;;;;;;5010010;28;20586;-62
2022/04/09 06:30:26;;;;;;;6.77;4.70;;;6.70;99.90;;;;;;5011220;28;20645;-63
2022/04/09 06:32:53;;;;;;;6.57;4.43;;;6.70;99.90;;;;;;5011641;28;20181;-63
2022/04/09 06:35:18;;;;;;;5.03;3.67;;;6.80;99.90;;;;;;5014579;28;20430;-62
2022/04/09 06:37:44;;;;;;;6.37;4.30;;;6.80;99.90;;;;;;5025109;28;20206;-62
2022/04/09 06:40:10;;;;;;;7.73;4.43;;;6.90;99.90;;;;;;5012163;28;20672;-64
2022/04/09 06:42:39;;;;;;;5.50;4.43;;;7.00;99.90;;;;;;5009926;28;20187;-63
2022/04/09 06:45:08;;;;;;;5.55;4.20;;;7.10;99.90;;;;;;5012657;28;20262;-62
2022/04/09 06:47:36;;;;;;;4.47;4.00;;;7.20;99.90;;;;;;5012877;28;20183;-63
2022/04/09 06:50:06;;;;;;;5.27;3.77;;;7.10;99.90;;;;;;5012919;28;20207;-63
2022/04/09 06:52:31;;;;;;;4.40;3.97;;;7.00;99.90;;;;;;5011024;28;20485;-63
2022/04/09 06:54:58;;;;;;;4.10;3.50;;;6.90;99.90;;;;;;5010337;28;20224;-64
2022/04/09 06:57:24;;;;;;;5.50;3.92;;;6.80;99.90;;;;;;5015656;28;20269;-62
2022/04/09 06:59:49;;;;;;;5.90;4.10;;;6.90;99.90;;;;;;5023456;28;20187;-64
2022/04/09 07:02:15;;;;;;;5.33;3.40;;;6.90;99.90;;;;;;5030617;28;20187;-63
2022/04/09 07:04:40;;;;;;;4.17;3.77;;;7.00;99.90;;;;;;5018485;28;20230;-63
2022/04/09 07:07:06;;;;;;;6.30;4.23;;;7.10;99.90;;;;;;5023445;28;20195;-58
2022/04/09 07:09:31;;;;;;;4.70;4.30;;;7.20;99.90;;;;;;5010807;28;20239;-63
2022/04/09 07:11:57;;;;;;;5.13;3.80;;;7.20;99.90;;;;;;5011114;28;20203;-64
2022/04/09 07:14:22;;;;;;;4.93;3.83;;;7.20;99.90;;;;;;5030571;28;20650;-63
2022/04/09 07:16:48;;;;;;;5.03;4.33;;;7.20;99.90;;;;;;5010745;28;20188;-63
2022/04/09 07:19:14;;;;;;;4.40;4.00;;;7.50;99.90;;;;;;5005433;28;20235;-63
2022/04/09 07:21:40;;;;;;;4.50;4.10;;;7.70;99.90;;;;;;5005728;28;20415;-63
2022/04/09 07:24:05;;;;;;;5.60;4.57;;;7.90;99.90;;;;;;5011015;28;20183;-63
2022/04/09 07:26:32;;;;;;;5.90;4.60;;;7.90;99.90;;;;;;5009465;28;20187;-64
2022/04/09 07:28:57;;;;;;;5.47;4.97;;;7.80;99.90;;;;;;5010039;28;20206;-64
2022/04/09 07:31:23;;;;;;;5.90;4.93;;;7.80;99.90;;;;;;5011433;28;20605;-64
2022/04/09 07:33:48;;;;;;;6.50;4.47;;;7.80;99.90;;;;;;5009875;28;20180;-64
2022/04/09 07:36:14;;;;;;;8.23;6.33;;;7.80;99.90;;;;;;5009422;28;20249;-64
2022/04/09 07:38:40;;;;;;;7.90;6.33;;;7.80;99.90;;;;;;5013506;28;20183;-54
2022/04/09 07:41:05;;;;;;;7.43;6.50;;;7.40;99.90;;;;;;5010272;28;20191;-57
2022/04/09 07:43:31;;;;;;;8.47;7.67;;;7.10;99.90;;;;;;5010035;28;20187;-57
2022/04/09 07:45:56;;;;;;;8.67;7.77;;;6.60;99.90;;;;;;5011355;28;20180;-63
2022/04/09 07:48:22;;;;;;;9.43;8.10;;;6.10;99.90;;;;;;5007598;28;20204;-56
2022/04/09 07:50:48;;;;;;;9.40;7.60;;;5.80;99.90;;;;;;5009063;28;20539;-55
2022/04/09 07:53:13;;;;;;;8.03;6.90;;;5.60;99.90;;;;;;5007398;28;20676;-59
2022/04/09 07:55:39;;;;;;;8.20;6.37;;;5.50;99.90;;;;;;5008856;28;20259;-53
2022/04/09 07:58:06;;;;;;;7.77;6.97;;;5.50;99.90;;;;;;5006262;28;20188;-55
2022/04/09 08:00:32;;;;;;;10.57;7.38;;;5.50;99.90;;;;;;5003843;28;20533;-55
2022/04/09 08:02:57;;;;;;;10.85;7.93;;;5.70;99.90;;;;;;5010606;28;20191;-54
2022/04/09 08:05:23;;;;;;;12.70;8.73;;;6.10;99.90;;;;;;5029404;28;20190;-59
2022/04/09 08:07:49;;;;;;;12.00;9.30;;;6.40;99.90;;;;;;5014570;28;20191;-53
2022/04/09 08:10:15;;;;;;;12.50;9.60;;;6.80;99.90;;;;;;5010383;28;20442;-52
2022/04/09 08:12:46;;;;;;;12.55;9.10;;;7.10;99.90;;;;;;5013447;28;20184;-53
2022/04/09 08:15:12;;;;;;;12.30;9.27;;;7.10;99.90;;;;;;4997107;28;20694;-53
2022/04/09 08:17:41;;;;;;;8.32;7.38;;;7.00;99.90;;;;;;5009086;28;20261;-56
2022/04/09 08:20:08;;;;;;;7.95;7.15;;;6.60;99.90;;;;;;5010067;28;20653;-54
2022/04/09 08:22:34;;;;;;;9.10;8.10;;;6.40;99.90;;;;;;5029457;28;20545;-59
2022/04/09 08:25:01;;;;;;;11.38;9.25;;;6.20;99.90;;;;;;5014706;28;20197;-54
2022/04/09 08:27:27;;;;;;;10.90;9.25;;;6.20;99.90;;;;;;5016302;28;20187;-54
2022/04/09 08:29:52;;;;;;;11.23;9.80;;;6.30;99.90;;;;;;5014595;28;20253;-56
2022/04/09 08:32:18;;;;;;;13.80;9.97;;;6.20;99.90;;;;;;5009466;28;20219;-57
2022/04/09 08:34:44;;;;;;;11.50;9.65;;;6.30;99.90;;;;;;5009060;28;20183;-57
2022/04/09 08:37:10;;;;;;;13.53;9.53;;;6.40;99.90;;;;;;5009177;28;20184;-55
2022/04/09 08:39:36;;;;;;;11.90;9.10;;;6.70;99.90;;;;;;5009488;28;20183;-54
2022/04/09 08:42:03;;;;;;;11.83;10.03;;;6.90;99.90;;;;;;5009501;28;20192;-54
2022/04/09 08:44:30;;;;;;;13.98;12.15;;;7.00;99.90;;;;;;5008907;28;20427;-57
2022/04/09 08:46:56;;;;;;;11.73;10.20;;;7.40;99.90;;;;;;5022832;28;20554;-57
2022/04/09 08:49:24;;;;;;;11.73;10.50;;;7.80;99.90;;;;;;5009216;28;20207;-53
2022/04/09 08:51:50;;;;;;;10.80;9.50;;;8.30;99.90;;;;;;5008258;28;20422;-52
2022/04/09 08:54:17;;;;;;;12.10;9.73;;;8.60;99.90;;;;;;5017056;28;20532;-58
2022/04/09 08:56:43;;;;;;;11.30;9.20;;;9.00;99.90;;;;;;5028979;28;20418;-54
2022/04/09 08:59:08;;;;;;;11.17;9.97;;;9.50;99.90;;;;;;5028918;28;20892;-56
2022/04/09 09:01:34;;;;;;;9.90;7.77;;;9.50;99.90;;;;;;5029159;28;20199;-55
2022/04/09 09:04:01;;;;;;;9.70;8.33;;;9.60;99.90;;;;;;5019711;28;20249;-54
2022/04/09 09:06:35;;;;;;;9.30;8.40;;;9.60;99.90;;;;;;5010281;28;20183;-54
2022/04/09 09:09:03;;;;;;;9.10;8.30;;;9.60;99.90;;;;;;5016803;28;21228;-55
2022/04/09 09:11:29;;;;;;;9.47;8.50;;;9.60;99.90;;;;;;5022267;28;20462;-58
2022/04/09 09:13:57;;;;;;;9.30;7.13;;;9.40;99.90;;;;;;5003587;28;20433;-55
2022/04/09 09:16:29;;;;;;;7.57;6.87;;;9.20;99.90;;;;;;5029704;28;20428;-58
2022/04/09 09:19:02;;;;;;;5.63;5.17;;;9.00;99.90;;;;;;5018409;28;20447;-53
2022/04/09 09:21:27;;;;;;;5.77;5.17;;;8.70;99.90;;;;;;5031158;28;20456;-56
2022/04/09 09:24:12;;;;;;;5.70;5.20;;;8.80;99.90;;;;;;5013787;28;21053;-52
2022/04/09 09:26:38;;;;;;;7.50;4.70;;;9.20;99.90;;;;;;5019300;28;20195;-54
2022/04/09 09:29:05;;;;;;;5.43;5.03;;;9.90;98.90;;;;;;5015927;28;20828;-56
2022/04/09 09:31:44;;;;;;;7.77;5.10;;;10.90;99.90;;;;;;5012459;28;20434;-57
2022/04/09 09:34:15;;;;;;;5.33;4.93;;;11.80;91.10;;;;;;5012243;28;20433;-56
2022/04/09 09:36:43;;;;;;;6.00;5.50;;;11.60;80.80;;;;;;5012713;28;20494;-58
2022/04/09 09:39:10;;;;;;;5.83;5.37;;;10.80;86.90;;;;;;5012702;28;20784;-51
2022/04/09 09:41:51;;;;;;;6.10;5.60;;;9.70;95.00;;;;;;5012802;28;20505;-53
2022/04/09 09:44:18;;;;;;;5.90;5.50;;;8.90;99.90;;;;;;5013010;28;20411;-51
2022/04/09 09:46:45;;;;;;;5.53;5.13;;;8.90;99.90;;;;;;5012095;28;20445;-53
2022/04/09 09:49:12;;;;;;;5.73;5.23;;;8.90;99.90;;;;;;5012936;28;20486;-56
2022/04/09 09:51:37;;;;;;;6.03;5.50;;;8.90;99.90;;;;;;5011057;28;21303;-56
2022/04/09 09:54:13;;;;;;;5.70;5.10;;;8.80;99.90;;;;;;5007037;28;20480;-51
2022/04/09 09:56:44;;;;;;;4.93;4.53;;;8.60;99.90;;;;;;5009494;28;20171;-55
2022/04/09 09:59:11;;;;;;;6.00;5.13;;;8.10;99.90;;;;;;5012398;28;20418;-55
2022/04/09 10:01:39;;;;;;;6.15;5.10;;;7.80;99.90;;;;;;5012519;28;20207;-56
2022/04/09 10:04:07;;;;;;;5.82;5.30;;;7.70;99.90;;;;;;5011643;28;20168;-55
2022/04/09 10:06:33;;;;;;;5.87;5.37;;;7.80;99.90;;;;;;5012347;28;20199;-56
2022/04/09 10:09:00;;;;;;;5.10;4.70;;;8.50;99.90;;;;;;5012284;28;20465;-51
2022/04/09 10:11:28;;;;;;;6.17;5.57;;;9.40;99.90;;;;;;5009839;28;20407;-53
2022/04/09 10:13:56;;;;;;;5.77;5.27;;;9.90;99.90;;;;;;5007425;28;20525;-52
2022/04/09 10:16:23;;;;;;;5.97;5.50;;;10.30;99.90;;;;;;5008292;28;20434;-53
2022/04/09 10:18:49;;;;;;;4.67;4.30;;;10.40;97.80;;;;;;5007661;28;20533;-54
2022/04/09 10:21:16;;;;;;;4.60;4.20;;;10.20;93.40;;;;;;4997112;28;20534;-57
2022/04/09 10:23:43;;;;;;;4.17;3.87;;;10.10;94.00;;;;;;5015515;28;20195;-51
2022/04/09 10:26:10;;;;;;;3.93;3.70;;;10.10;94.60;;;;;;5022466;28;20426;-53
2022/04/09 10:28:38;;;;;;;4.23;3.93;;;10.60;91.50;;;;;;5003586;28;20466;-53
2022/04/09 10:31:22;;;;;;;4.00;3.60;;;11.00;91.60;;;;;;5008407;28;20436;-56
2022/04/09 10:33:58;;;;;;;3.50;3.30;;;11.80;91.60;;;;;;5005039;28;20419;-57
2022/04/09 10:36:45;;;;;;;3.90;3.70;;;11.80;91.20;;;;;;5012646;28;20421;-54
2022/04/09 10:39:29;;;;;;;4.23;3.93;;;12.10;83.80;;;;;;5019574;28;20437;-56
2022/04/09 10:41:55;;;;;;;4.73;4.43;;;12.20;86.90;;;;;;5031010;28;20418;-60
2022/04/09 10:44:43;;;;;;;4.30;4.03;;;11.10;91.20;;;;;;5026874;28;20911;-55
2022/04/09 10:47:10;;;;;;;4.97;4.57;;;10.10;95.00;;;;;;5008206;28;20846;-55
2022/04/09 10:49:36;;;;;;;4.20;3.90;;;9.60;99.90;;;;;;5015944;28;20462;-58
2022/04/09 10:52:05;;;;;;;4.33;3.93;;;9.10;99.90;;;;;;5011028;28;20425;-57
2022/04/09 10:54:34;;;;;;;4.00;3.70;;;8.90;99.90;;;;;;5024526;28;20544;-58
2022/04/09 10:57:07;;;;;;;3.80;3.50;;;9.80;99.90;;;;;;5004799;28;20413;-58
2022/04/09 10:59:34;;;;;;;4.40;4.10;;;11.20;99.90;;;;;;5030672;28;20471;-55
2022/04/09 11:01:59;;;;;;;6.70;4.30;;;12.80;99.90;;;;;;5030680;28;20878;-58
2022/04/09 11:07:14;;;;;;;4.83;4.53;;;15.00;92.90;;;;;;5030536;28;20422;-55
2022/04/09 11:09:49;;;;;;;5.70;5.40;;;15.50;90.10;;;;;;5016378;28;20460;-55
2022/04/09 11:12:29;;;;;;;5.33;4.83;;;15.00;78.40;;;;;;5030421;28;20413;-56
2022/04/09 11:14:59;;;;;;;6.03;5.67;;;13.00;88.30;;;;;;5030138;28;20413;-52
2022/04/09 11:17:27;;;;;;;6.27;5.87;;;11.50;95.70;;;;;;5030160;28;20425;-56
2022/04/09 11:19:54;;;;;;;10.33;9.53;;;10.30;99.90;;;;;;5010670;28;20846;-55
2022/04/09 11:22:21;;;;;;;6.47;6.00;;;9.30;99.90;;;;;;5022802;28;20418;-55
2022/04/09 11:24:46;;;;;;;4.93;4.63;;;8.60;99.90;;;;;;5030408;28;20429;-54
2022/04/09 11:27:12;;;;;;;4.13;3.73;;;8.10;99.90;;;;;;5030290;28;20421;-56
2022/04/09 11:29:40;;;;;;;17.83;16.13;;;8.00;99.90;;;;;;5022202;28;20199;-56
2022/04/09 11:32:06;;;;;;;14.33;12.93;;;8.30;99.90;;;;;;5021415;28;20175;-51
2022/04/09 11:34:48;;;;;;;4.30;3.90;;;8.60;99.90;;;;;;5030049;28;20420;-55
2022/04/09 11:37:13;;;;;;;5.03;4.13;;;9.60;99.90;;;;;;5023163;28;20418;-53
2022/04/09 11:39:40;;;;;;;3.40;3.10;;;10.90;99.90;;;;;;5021165;28;20429;-54
2022/04/09 11:42:09;;;;;;;6.00;3.67;;;12.30;99.90;;;;;;5014134;28;20217;-53
2022/04/09 11:44:35;;;;;;;3.90;3.60;;;13.40;99.90;;;;;;5023431;28;20422;-53
2022/04/09 11:47:16;;;;;;;3.90;3.70;;;14.30;99.90;;;;;;5000557;28;20791;-54
2022/04/09 11:49:47;;;;;;;4.50;4.20;;;15.50;98.40;;;;;;4996185;28;20474;-56
2022/04/09 11:52:23;;;;;;;4.40;4.10;;;16.50;93.10;;;;;;4997003;28;20884;-56
2022/04/09 11:54:49;;;;;;;4.40;4.10;;;17.30;82.40;;;;;;4997772;28;20476;-55
2022/04/09 11:57:14;;;;;;;5.07;4.77;;;17.80;71.50;;;;;;4996785;28;20418;-53
2022/04/09 11:59:40;;;;;;;5.00;4.80;;;17.20;67.80;;;;;;4991094;28;20202;-54
2022/04/09 12:02:20;;;;;;;5.13;4.73;;;16.10;68.10;;;;;;4991224;28;20184;-57
2022/04/09 12:04:47;;;;;;;5.03;4.73;;;15.10;74.40;;;;;;4990802;28;20173;-57
2022/04/09 12:07:12;;;;;;;4.87;4.57;;;13.60;71.80;;;;;;4991929;28;20827;-56
2022/04/09 12:09:38;;;;;;;4.03;3.80;;;12.10;77.50;;;;;;4990336;28;20470;-57
2022/04/09 12:12:04;;;;;;;4.57;4.27;;;10.60;82.00;;;;;;4994988;28;20191;-56
2022/04/09 12:14:30;;;;;;;4.60;4.30;;;9.10;94.00;;;;;;4993271;28;20491;-56
2022/04/09 12:16:56;;;;;;;4.50;4.10;;;8.40;99.90;;;;;;4990866;28;20416;-57
2022/04/09 12:19:32;;;;;;;5.20;4.80;;;8.10;99.90;;;;;;4993174;28;20189;-57
2022/04/09 12:22:13;;;;;;;4.10;3.80;;;8.00;99.90;;;;;;4991547;28;20419;-56
2022/04/09 12:25:05;;;;;;;4.30;4.00;;;8.30;99.90;;;;;;4996901;28;21375;-58
2022/04/09 12:27:45;;;;;;;4.43;4.13;;;9.80;99.90;;;;;;4991850;28;20463;-57
2022/04/09 12:30:13;;;;;;;4.63;4.23;;;11.40;99.90;;;;;;4991013;28;20474;-58
2022/04/09 12:32:41;;;;;;;4.47;4.13;;;12.60;97.60;;;;;;4990958;28;20454;-58
2022/04/09 12:35:11;;;;;;;4.97;4.57;;;13.60;91.50;;;;;;4990916;28;20423;-58
2022/04/09 12:37:46;;;;;;;4.43;4.13;;;14.10;83.20;;;;;;4997222;28;20471;-57
2022/04/09 12:40:17;;;;;;;4.40;4.10;;;13.70;84.40;;;;;;4997599;28;20437;-58
2022/04/09 12:42:43;;;;;;;4.33;4.03;;;13.30;83.60;;;;;;5026922;28;20417;-57
2022/04/09 12:45:24;;;;;;;3.97;3.77;;;13.00;84.80;;;;;;5018141;28;20531;-57
2022/04/09 12:48:01;;;;;;;3.90;3.70;;;12.60;81.20;;;;;;5004988;28;20422;-58
2022/04/09 12:50:33;;;;;;;4.23;3.27;;;12.30;87.80;;;;;;5026393;28;21232;-58
2022/04/09 12:53:01;;;;;;;3.40;3.20;;;11.90;86.30;;;;;;5021590;28;20814;-57
2022/04/09 12:55:27;;;;;;;5.33;3.20;;;11.80;90.30;;;;;;5032143;28;20473;-55